Chelsea, Alabama
Current Conditions -  °F | °C
As of 10:53 PM on Wednesday 26 Nov 2014 (Local Time) from KEET Reporting Station
Clear Clear  
Wind Chill: 45°   Ceiling: Unl
Heat Index: 49°   Visibility: 10mi
Dew Point: 26°   Wind: 9mph
Humidity: 41%   Direction: 300°WNW
Pressure: 30.16"   Gusts: NA
Location:  33.34°N, 86.63°W
Report Text: KEET 270453Z AUTO 30008KT 10SM CLR 09/M03 A3016 RMK AO2 SLP213 T00941033
Loading
Personal Weather Stations






























Interactive Weather Map New forecast layout! Learn more

10-Day Weather Forecast

Advertisements
Track Severe Weather on mobile